Time;durP1;ratioP1;P1;durP2;ratioP2;P2;SDS_P1;SDS_P2;PMS_P1;PMS_P2;Temp;Humidity;BMP_temperature;BMP_pressure;BME280_temperature;BME280_humidity;BME280_pressure;Samples;Min_cycle;Max_cycle;Signal;HPM_P1;HPM_P2
2021/05/31 00:00:44;;;;;;;5.60;4.83;;;17.00;56.20;;;;;;5023632;28;20219;-75
2021/05/31 00:03:10;;;;;;;5.00;4.60;;;17.00;56.30;;;;;;5022765;28;20254;-75
2021/05/31 00:05:35;;;;;;;5.00;4.50;;;17.00;56.40;;;;;;5021560;28;20181;-75
2021/05/31 00:08:01;;;;;;;5.10;4.60;;;17.00;56.60;;;;;;5018302;28;20212;-75
2021/05/31 00:10:27;;;;;;;5.47;4.97;;;16.90;56.80;;;;;;5017096;28;20258;-75
2021/05/31 00:12:53;;;;;;;4.83;4.23;;;16.90;57.10;;;;;;5021124;28;20729;-74
2021/05/31 00:15:19;;;;;;;6.10;4.63;;;16.80;57.00;;;;;;5019304;28;20197;-75
2021/05/31 00:17:45;;;;;;;5.10;4.60;;;16.80;57.00;;;;;;5019423;28;20486;-73
2021/05/31 00:20:12;;;;;;;5.00;4.60;;;16.80;57.10;;;;;;5020194;28;20509;-75
2021/05/31 00:22:38;;;;;;;4.27;3.87;;;16.80;57.10;;;;;;5019639;28;20736;-74
2021/05/31 00:25:08;;;;;;;5.33;4.53;;;16.70;57.20;;;;;;5021741;28;20442;-75
2021/05/31 00:27:33;;;;;;;5.20;4.70;;;16.70;57.60;;;;;;5021784;28;20469;-75
2021/05/31 00:29:59;;;;;;;5.30;4.10;;;16.70;57.60;;;;;;5024967;28;20838;-75
2021/05/31 00:32:24;;;;;;;8.00;4.17;;;16.70;57.60;;;;;;5021310;28;20739;-76
2021/05/31 00:34:50;;;;;;;6.07;5.10;;;16.70;57.70;;;;;;5023754;28;20199;-75
2021/05/31 00:37:16;;;;;;;6.73;4.73;;;16.70;57.70;;;;;;5018856;28;20216;-76
2021/05/31 00:39:41;;;;;;;5.37;4.97;;;16.70;58.10;;;;;;5022475;28;20172;-75
2021/05/31 00:42:07;;;;;;;5.00;4.50;;;16.60;58.60;;;;;;5018624;28;20470;-75
2021/05/31 00:44:33;;;;;;;5.20;4.80;;;16.60;58.80;;;;;;5014388;28;20199;-76
2021/05/31 00:46:59;;;;;;;5.23;4.60;;;16.60;59.80;;;;;;5016353;28;20454;-75
2021/05/31 00:49:28;;;;;;;5.33;4.83;;;16.50;59.60;;;;;;5019339;28;20479;-75
2021/05/31 00:51:55;;;;;;;4.77;4.37;;;16.40;59.80;;;;;;5019687;28;20192;-75
2021/05/31 00:54:21;;;;;;;5.23;4.50;;;16.40;60.10;;;;;;5023372;28;20462;-75
2021/05/31 00:56:48;;;;;;;5.93;4.80;;;16.40;60.50;;;;;;5021855;28;21067;-75
2021/05/31 00:59:14;;;;;;;7.03;5.20;;;16.40;60.80;;;;;;5021452;28;20439;-75
2021/05/31 01:01:40;;;;;;;6.37;5.07;;;16.40;60.80;;;;;;5021039;28;20551;-75
2021/05/31 01:04:06;;;;;;;6.70;4.93;;;16.30;61.00;;;;;;5016460;28;21143;-75
2021/05/31 01:06:36;;;;;;;5.63;5.13;;;16.30;61.50;;;;;;5017356;28;20447;-75
2021/05/31 01:09:12;;;;;;;7.10;6.47;;;16.30;62.00;;;;;;5025169;28;20794;-75
2021/05/31 01:11:47;;;;;;;6.20;5.50;;;16.20;62.30;;;;;;5021107;28;20454;-75
2021/05/31 01:14:54;;;;;;;9.80;5.20;;;16.20;62.50;;;;;;5018920;28;20477;-75
2021/05/31 01:17:42;;;;;;;5.70;5.20;;;16.10;63.10;;;;;;5016198;28;20463;-75
2021/05/31 01:20:17;;;;;;;5.60;5.10;;;16.00;63.30;;;;;;5017178;28;20442;-76
2021/05/31 01:22:45;;;;;;;5.97;5.47;;;16.00;63.50;;;;;;5015679;28;22344;-75
2021/05/31 01:25:14;;;;;;;5.60;5.10;;;16.00;63.50;;;;;;5021728;28;21218;-76
2021/05/31 01:28:13;;;;;;;6.03;5.10;;;15.90;63.70;;;;;;5019113;28;20466;-73
2021/05/31 01:30:44;;;;;;;5.90;4.80;;;15.90;63.80;;;;;;5022181;28;20447;-74
2021/05/31 01:33:14;;;;;;;5.57;5.07;;;15.90;63.70;;;;;;5015364;28;20437;-75
2021/05/31 01:35:41;;;;;;;5.77;5.27;;;15.80;63.80;;;;;;5021167;28;20444;-74
2021/05/31 01:38:07;;;;;;;5.37;4.87;;;15.80;63.90;;;;;;5022325;28;20568;-74
2021/05/31 01:40:33;;;;;;;5.47;4.97;;;15.80;64.20;;;;;;5023097;28;20849;-74
2021/05/31 01:43:01;;;;;;;5.60;5.10;;;15.80;64.40;;;;;;5020378;28;20473;-74
2021/05/31 01:45:27;;;;;;;6.60;5.97;;;15.70;64.40;;;;;;5024907;28;20439;-74
2021/05/31 01:47:53;;;;;;;5.97;4.80;;;15.70;64.60;;;;;;5018638;28;20876;-74
2021/05/31 01:50:19;;;;;;;8.20;5.17;;;15.60;64.90;;;;;;5019372;28;20505;-74
2021/05/31 01:52:46;;;;;;;6.50;5.00;;;15.60;65.20;;;;;;5018597;28;20312;-75
2021/05/31 01:55:14;;;;;;;5.40;4.97;;;15.60;65.30;;;;;;5017188;28;20471;-75
2021/05/31 01:57:44;;;;;;;5.30;4.87;;;15.60;65.10;;;;;;5017674;28;20464;-75
2021/05/31 02:00:12;;;;;;;8.70;5.50;;;15.50;65.20;;;;;;5022826;28;20526;-75
2021/05/31 02:02:38;;;;;;;6.30;5.70;;;15.40;65.60;;;;;;5020084;28;20949;-75
2021/05/31 02:05:09;;;;;;;6.27;5.67;;;15.40;66.00;;;;;;5022555;28;20462;-75
2021/05/31 02:07:38;;;;;;;5.23;4.73;;;15.40;66.30;;;;;;5018406;28;20974;-75
2021/05/31 02:10:07;;;;;;;5.33;4.83;;;15.30;66.50;;;;;;5024510;28;20488;-75
2021/05/31 02:12:42;;;;;;;6.03;5.07;;;15.30;66.90;;;;;;5020072;28;21629;-75
2021/05/31 02:15:09;;;;;;;5.80;5.20;;;15.30;67.20;;;;;;5018316;28;20423;-75
2021/05/31 02:17:43;;;;;;;7.17;5.50;;;15.20;67.10;;;;;;5018402;28;20475;-75
2021/05/31 02:20:11;;;;;;;5.93;5.23;;;15.20;67.40;;;;;;5019421;28;20449;-75
2021/05/31 02:22:43;;;;;;;9.13;5.00;;;15.20;67.40;;;;;;5018916;28;20478;-75
2021/05/31 02:25:11;;;;;;;5.23;4.50;;;15.20;67.60;;;;;;5016971;28;20439;-74
2021/05/31 02:27:36;;;;;;;6.97;6.37;;;15.20;68.10;;;;;;5020815;28;20470;-74
2021/05/31 02:30:06;;;;;;;5.97;5.47;;;15.20;68.10;;;;;;5022233;28;20432;-74
2021/05/31 02:32:32;;;;;;;6.50;5.50;;;15.00;68.40;;;;;;5019680;28;20648;-75
2021/05/31 02:34:58;;;;;;;5.97;5.40;;;15.00;68.40;;;;;;5022706;28;20435;-75
2021/05/31 02:37:37;;;;;;;5.37;4.93;;;15.00;68.60;;;;;;5020456;28;20261;-75
2021/05/31 02:40:05;;;;;;;7.10;4.83;;;14.90;68.80;;;;;;5033346;28;20487;-75
2021/05/31 02:42:56;;;;;;;6.10;5.50;;;15.00;69.10;;;;;;5022882;28;21171;-75
2021/05/31 02:45:24;;;;;;;5.67;5.17;;;14.90;69.10;;;;;;5021422;28;20957;-75
2021/05/31 02:47:51;;;;;;;5.90;5.40;;;14.90;69.40;;;;;;5014267;28;20466;-75
2021/05/31 02:50:17;;;;;;;6.83;5.37;;;14.80;69.60;;;;;;5015885;28;20857;-75
2021/05/31 02:52:43;;;;;;;5.97;5.47;;;14.80;69.80;;;;;;5026609;28;20429;-75
2021/05/31 02:55:14;;;;;;;5.27;4.77;;;14.80;69.90;;;;;;5020826;28;20222;-75
2021/05/31 02:57:40;;;;;;;6.07;5.57;;;14.80;70.30;;;;;;5023227;28;21059;-75
2021/05/31 03:00:11;;;;;;;5.50;5.00;;;14.80;69.30;;;;;;5023334;28;20520;-75
2021/05/31 03:02:36;;;;;;;5.57;5.07;;;14.80;69.60;;;;;;5024118;28;20501;-75
2021/05/31 03:05:04;;;;;;;6.30;5.63;;;14.70;69.30;;;;;;5027578;28;20866;-75
2021/05/31 03:07:29;;;;;;;4.80;4.40;;;14.70;69.40;;;;;;5021928;28;20282;-75
2021/05/31 03:09:55;;;;;;;7.00;5.33;;;14.60;69.60;;;;;;5023672;28;20972;-75
2021/05/31 03:12:21;;;;;;;5.70;5.10;;;14.60;69.70;;;;;;5018314;28;20218;-75
2021/05/31 03:14:49;;;;;;;5.90;5.30;;;14.60;69.50;;;;;;5018118;28;20199;-75
2021/05/31 03:17:15;;;;;;;6.00;5.20;;;14.60;69.80;;;;;;5023172;28;20592;-75
2021/05/31 03:19:40;;;;;;;6.60;5.50;;;14.50;70.00;;;;;;5029087;28;20439;-75
2021/05/31 03:22:06;;;;;;;6.50;5.37;;;14.40;70.00;;;;;;5022153;28;20222;-75
2021/05/31 03:24:32;;;;;;;6.80;4.97;;;14.40;70.60;;;;;;5024015;28;20196;-75
2021/05/31 03:26:57;;;;;;;5.50;5.10;;;14.40;71.00;;;;;;5024213;28;20813;-75
2021/05/31 03:29:23;;;;;;;5.60;4.73;;;14.30;70.60;;;;;;5022463;28;20618;-75
2021/05/31 03:31:49;;;;;;;4.70;4.30;;;14.30;69.80;;;;;;5024190;28;20204;-75
2021/05/31 03:34:14;;;;;;;5.93;5.37;;;14.20;69.70;;;;;;5020036;28;20280;-75
2021/05/31 03:36:40;;;;;;;5.13;4.63;;;14.30;69.60;;;;;;5018483;28;20571;-75
2021/05/31 03:39:07;;;;;;;5.57;4.93;;;14.10;69.40;;;;;;5018626;28;20247;-75
2021/05/31 03:41:34;;;;;;;7.50;4.30;;;14.00;69.00;;;;;;5022703;28;20729;-75
2021/05/31 03:44:00;;;;;;;4.97;4.57;;;14.00;69.10;;;;;;5018893;28;20474;-75
2021/05/31 03:46:25;;;;;;;4.90;4.50;;;14.00;69.30;;;;;;5018880;28;21032;-75
2021/05/31 03:48:52;;;;;;;5.60;5.10;;;14.00;69.30;;;;;;5019925;28;20216;-75
2021/05/31 03:51:19;;;;;;;8.57;4.90;;;14.00;69.20;;;;;;5021286;28;20221;-75
2021/05/31 03:53:44;;;;;;;5.03;4.53;;;14.00;69.00;;;;;;5022139;28;20484;-75
2021/05/31 03:56:10;;;;;;;5.53;5.03;;;14.10;68.90;;;;;;5022942;28;21172;-75
2021/05/31 03:58:38;;;;;;;5.70;5.10;;;14.10;69.20;;;;;;5019346;28;20208;-75
2021/05/31 04:01:04;;;;;;;5.70;4.70;;;14.20;69.60;;;;;;5024034;28;20481;-75
2021/05/31 04:03:30;;;;;;;5.40;4.77;;;14.20;70.60;;;;;;5018259;28;20451;-76
2021/05/31 04:06:07;;;;;;;6.17;4.93;;;14.20;70.20;;;;;;5019003;28;20439;-75
2021/05/31 04:11:36;;;;;;;5.63;4.77;;;14.20;70.50;;;;;;5022604;28;20457;-75
2021/05/31 04:14:28;;;;;;;6.37;4.97;;;14.20;70.50;;;;;;5024482;28;20823;-75
2021/05/31 04:16:55;;;;;;;5.03;4.50;;;14.30;70.80;;;;;;5022669;28;20447;-75
2021/05/31 04:19:23;;;;;;;5.40;5.00;;;14.30;70.50;;;;;;5024464;28;20446;-75
2021/05/31 04:21:52;;;;;;;5.97;5.37;;;14.30;70.40;;;;;;5022575;28;20565;-75
2021/05/31 04:24:18;;;;;;;5.43;4.83;;;14.30;70.40;;;;;;5022168;28;20981;-75
2021/05/31 04:26:45;;;;;;;4.83;4.33;;;14.40;70.70;;;;;;5022235;28;20435;-75
2021/05/31 04:29:13;;;;;;;5.00;4.60;;;14.40;70.20;;;;;;5025124;28;20204;-75
2021/05/31 04:31:40;;;;;;;5.30;4.83;;;14.40;69.90;;;;;;5023387;28;20447;-75
2021/05/31 04:34:08;;;;;;;4.60;4.23;;;14.40;69.60;;;;;;5022098;28;20470;-75
2021/05/31 04:36:34;;;;;;;6.20;5.70;;;14.30;69.00;;;;;;5021352;28;20443;-75
2021/05/31 04:39:03;;;;;;;5.67;5.07;;;14.40;69.20;;;;;;5022254;28;20478;-75
2021/05/31 04:41:29;;;;;;;4.87;4.30;;;14.30;69.30;;;;;;5021170;28;20464;-75
2021/05/31 04:43:55;;;;;;;5.53;4.33;;;14.20;69.50;;;;;;5024121;28;21489;-75
2021/05/31 04:46:20;;;;;;;6.60;4.47;;;14.20;69.40;;;;;;5020717;28;20255;-75
2021/05/31 04:48:46;;;;;;;4.40;4.10;;;14.30;69.50;;;;;;5018508;28;20212;-75
2021/05/31 04:51:11;;;;;;;5.17;4.60;;;14.30;69.10;;;;;;5020831;28;20600;-75
2021/05/31 04:53:37;;;;;;;5.20;4.03;;;14.40;68.80;;;;;;5021558;28;20242;-75
2021/05/31 04:56:04;;;;;;;4.80;4.20;;;14.50;68.60;;;;;;5021295;28;20247;-75
2021/05/31 04:58:30;;;;;;;5.10;4.60;;;14.50;68.30;;;;;;5022225;28;20278;-75
2021/05/31 05:00:56;;;;;;;7.13;4.73;;;14.60;68.10;;;;;;5017109;28;20475;-75
2021/05/31 05:03:22;;;;;;;11.57;4.10;;;14.60;68.70;;;;;;5022620;28;20251;-75
2021/05/31 05:05:48;;;;;;;5.70;4.30;;;14.60;66.90;;;;;;5016165;28;20458;-75
2021/05/31 05:08:15;;;;;;;4.83;4.23;;;14.70;67.10;;;;;;5016342;28;20469;-76
2021/05/31 05:10:41;;;;;;;4.73;4.33;;;14.70;66.90;;;;;;5020308;28;21094;-75
2021/05/31 05:13:07;;;;;;;5.80;4.60;;;14.70;67.00;;;;;;5014719;28;20435;-75
2021/05/31 05:15:34;;;;;;;4.30;4.00;;;14.80;66.80;;;;;;5015941;28;20207;-75
2021/05/31 05:17:59;;;;;;;7.33;4.37;;;14.90;66.20;;;;;;5019357;28;20486;-76
2021/05/31 05:20:27;;;;;;;5.03;4.10;;;15.00;66.10;;;;;;5025539;28;20502;-76
2021/05/31 05:22:54;;;;;;;5.73;5.23;;;15.10;66.10;;;;;;5018880;28;20800;-75
2021/05/31 05:25:20;;;;;;;4.40;3.97;;;15.00;65.50;;;;;;5017395;28;20592;-76
2021/05/31 05:27:49;;;;;;;4.30;4.00;;;15.10;65.50;;;;;;5022301;28;22189;-76
2021/05/31 05:30:18;;;;;;;9.20;4.17;;;15.20;65.60;;;;;;5024865;28;20478;-75
2021/05/31 05:32:48;;;;;;;5.83;4.40;;;15.30;65.60;;;;;;5023626;28;20447;-76
2021/05/31 05:43:20;;;;;;;5.00;4.40;;;15.60;66.10;;;;;;5025013;28;20981;-76
2021/05/31 05:48:14;;;;;;;4.87;4.37;;;15.70;65.70;;;;;;5022625;28;20471;-76
2021/05/31 05:50:40;;;;;;;4.70;4.30;;;15.80;65.40;;;;;;5025018;28;20458;-75
2021/05/31 05:53:05;;;;;;;4.73;4.33;;;15.90;64.80;;;;;;5025328;28;20677;-75
2021/05/31 05:55:31;;;;;;;5.50;4.33;;;16.00;64.90;;;;;;5024688;28;20268;-75
2021/05/31 05:57:57;;;;;;;4.80;4.40;;;16.10;65.50;;;;;;5024039;28;20212;-75
2021/05/31 06:00:26;;;;;;;5.73;5.13;;;16.10;65.40;;;;;;5023553;28;20494;-75
2021/05/31 06:02:53;;;;;;;5.33;4.93;;;16.20;65.30;;;;;;5022731;28;20808;-75
2021/05/31 06:05:19;;;;;;;5.47;4.23;;;16.30;65.40;;;;;;5022253;28;20447;-76
2021/05/31 06:07:45;;;;;;;5.03;4.27;;;16.40;65.40;;;;;;5026432;28;20463;-75
2021/05/31 06:10:12;;;;;;;4.73;4.20;;;16.40;65.40;;;;;;5024949;28;20442;-75
2021/05/31 06:12:37;;;;;;;6.83;4.60;;;16.50;65.80;;;;;;5022456;28;20291;-75
2021/05/31 06:15:04;;;;;;;4.53;4.13;;;16.50;66.00;;;;;;5022080;28;20435;-75
2021/05/31 06:17:31;;;;;;;4.80;4.40;;;16.60;65.40;;;;;;5023180;28;20283;-75
2021/05/31 06:20:00;;;;;;;5.77;4.67;;;16.60;65.20;;;;;;5023844;28;20917;-75
2021/05/31 06:22:28;;;;;;;5.13;4.27;;;16.60;65.80;;;;;;5024522;28;21052;-75
2021/05/31 06:24:54;;;;;;;4.87;4.37;;;16.60;65.20;;;;;;5019860;28;20519;-76
2021/05/31 06:27:19;;;;;;;4.63;4.23;;;16.60;65.20;;;;;;5024543;28;20459;-75
2021/05/31 06:29:45;;;;;;;5.10;4.63;;;16.70;65.50;;;;;;5012858;28;20188;-75
2021/05/31 06:32:10;;;;;;;4.97;4.67;;;16.70;65.50;;;;;;5023781;28;20443;-75
2021/05/31 06:34:36;;;;;;;5.30;4.80;;;16.90;65.40;;;;;;5026259;28;20231;-75
2021/05/31 06:37:02;;;;;;;4.70;4.40;;;17.00;65.10;;;;;;5025017;28;20247;-75
2021/05/31 06:39:27;;;;;;;5.73;5.33;;;17.00;65.10;;;;;;5028573;28;20283;-75
2021/05/31 06:41:53;;;;;;;5.63;4.37;;;17.20;64.80;;;;;;5027149;28;20192;-76
2021/05/31 06:44:19;;;;;;;6.40;4.50;;;17.30;65.00;;;;;;5027922;28;20280;-75
2021/05/31 06:46:44;;;;;;;4.90;4.47;;;17.40;65.10;;;;;;5025860;28;20193;-75
2021/05/31 06:49:10;;;;;;;7.57;4.60;;;17.40;64.50;;;;;;5028659;28;20231;-75
2021/05/31 06:51:36;;;;;;;4.37;4.00;;;17.60;64.60;;;;;;5026090;28;20207;-75
2021/05/31 06:54:02;;;;;;;5.03;4.60;;;17.70;64.70;;;;;;5026919;28;20191;-75
2021/05/31 06:56:27;;;;;;;4.80;4.40;;;17.70;64.90;;;;;;5026842;28;20458;-74
2021/05/31 06:58:53;;;;;;;7.30;4.67;;;17.90;65.20;;;;;;5026328;28;20224;-75
2021/05/31 07:01:19;;;;;;;4.70;4.13;;;17.90;65.60;;;;;;5027027;28;20239;-74
2021/05/31 07:03:45;;;;;;;5.87;5.37;;;18.00;64.70;;;;;;5027545;28;20192;-74
2021/05/31 07:06:10;;;;;;;4.90;4.60;;;18.10;64.60;;;;;;5025124;28;20532;-74
2021/05/31 07:08:36;;;;;;;4.60;4.30;;;18.00;64.40;;;;;;5028828;28;20617;-74
2021/05/31 07:11:09;;;;;;;5.57;5.07;;;18.10;62.00;;;;;;5028622;28;20200;-75
2021/05/31 07:13:35;;;;;;;4.60;4.20;;;18.20;61.30;;;;;;5024251;28;20237;-75
2021/05/31 07:16:01;;;;;;;5.43;4.33;;;18.00;61.20;;;;;;5027789;28;20503;-75
2021/05/31 07:18:27;;;;;;;4.77;4.30;;;18.10;61.10;;;;;;5027511;28;20212;-75
2021/05/31 07:20:53;;;;;;;5.57;5.07;;;18.30;62.60;;;;;;5025094;28;20262;-75
2021/05/31 07:23:19;;;;;;;4.20;3.80;;;18.40;62.10;;;;;;5025153;28;20459;-75
2021/05/31 07:25:46;;;;;;;4.43;4.03;;;18.40;61.40;;;;;;5026431;28;20581;-75
2021/05/31 07:28:12;;;;;;;4.83;4.07;;;18.30;60.50;;;;;;5021125;28;20837;-75
2021/05/31 07:30:38;;;;;;;4.67;4.13;;;18.40;59.00;;;;;;5027266;28;20414;-75
2021/05/31 07:33:04;;;;;;;4.70;4.30;;;18.50;58.70;;;;;;5022866;28;20792;-75
2021/05/31 07:35:30;;;;;;;4.90;4.50;;;18.60;58.80;;;;;;5027037;28;20227;-75
2021/05/31 07:37:56;;;;;;;5.33;3.90;;;18.70;58.60;;;;;;5025242;28;20467;-74
2021/05/31 07:40:23;;;;;;;5.00;4.50;;;18.60;57.30;;;;;;5025091;28;20447;-75
2021/05/31 07:42:48;;;;;;;4.63;4.33;;;18.60;56.50;;;;;;5025648;28;20558;-75
2021/05/31 07:45:19;;;;;;;4.53;4.10;;;18.70;57.60;;;;;;5025894;28;20446;-75
2021/05/31 07:47:46;;;;;;;4.27;3.90;;;18.70;57.10;;;;;;5022583;28;20215;-75
2021/05/31 07:50:14;;;;;;;4.73;4.33;;;18.70;56.30;;;;;;5027251;28;20573;-75
2021/05/31 07:52:40;;;;;;;5.07;4.60;;;18.70;56.50;;;;;;5024248;28;20427;-75
2021/05/31 07:55:09;;;;;;;5.47;5.00;;;19.00;57.20;;;;;;5023398;28;20470;-76
2021/05/31 07:57:35;;;;;;;5.30;4.47;;;19.00;55.10;;;;;;5025190;28;20549;-75
2021/05/31 08:00:03;;;;;;;4.83;4.40;;;19.20;54.90;;;;;;5024732;28;21081;-75
2021/05/31 08:02:28;;;;;;;4.37;3.97;;;19.30;55.20;;;;;;5027692;28;20212;-76
2021/05/31 08:04:54;;;;;;;4.50;4.10;;;19.40;55.00;;;;;;5022962;28;20427;-76
2021/05/31 08:07:19;;;;;;;4.50;3.87;;;19.30;54.60;;;;;;5025784;28;20212;-75
2021/05/31 08:09:47;;;;;;;5.13;3.70;;;19.30;55.00;;;;;;5025262;28;20176;-75
2021/05/31 08:12:13;;;;;;;4.90;4.50;;;19.40;55.50;;;;;;5023495;28;20209;-75
2021/05/31 08:14:39;;;;;;;4.83;4.37;;;19.50;55.20;;;;;;5025110;28;20447;-75
2021/05/31 08:17:04;;;;;;;4.40;4.00;;;19.50;55.10;;;;;;5019269;28;20773;-73
2021/05/31 08:19:32;;;;;;;4.60;3.80;;;19.60;55.10;;;;;;5020935;28;20216;-74
2021/05/31 08:21:58;;;;;;;8.20;4.60;;;19.70;56.00;;;;;;5022134;28;20262;-74
2021/05/31 08:24:24;;;;;;;6.73;4.27;;;19.80;54.30;;;;;;5023646;28;20431;-75
2021/05/31 08:26:49;;;;;;;4.87;4.47;;;19.80;56.00;;;;;;5023456;28;21014;-75
2021/05/31 08:29:15;;;;;;;5.00;4.47;;;19.90;53.80;;;;;;5023977;28;20463;-75
2021/05/31 08:31:41;;;;;;;5.27;4.70;;;19.90;53.40;;;;;;5024000;28;20172;-75
2021/05/31 08:34:06;;;;;;;7.50;4.13;;;20.00;52.80;;;;;;5023547;28;20200;-75
2021/05/31 08:36:33;;;;;;;5.10;4.70;;;20.00;52.80;;;;;;5021862;28;21397;-75
2021/05/31 08:38:59;;;;;;;5.07;4.57;;;20.10;53.10;;;;;;5023235;28;20215;-76
2021/05/31 08:41:26;;;;;;;4.80;4.30;;;20.10;52.10;;;;;;5020474;28;20475;-75
2021/05/31 08:43:52;;;;;;;6.20;5.20;;;20.20;52.10;;;;;;5024690;28;20191;-75
2021/05/31 08:46:18;;;;;;;4.30;4.00;;;20.30;52.10;;;;;;5025393;28;20781;-75
2021/05/31 08:48:44;;;;;;;4.40;4.10;;;20.30;52.20;;;;;;5023320;28;20563;-75
2021/05/31 08:51:10;;;;;;;4.93;3.93;;;20.40;52.90;;;;;;5016104;28;20430;-75
2021/05/31 08:53:36;;;;;;;4.60;3.70;;;20.40;52.10;;;;;;5018745;28;20212;-75
2021/05/31 08:56:03;;;;;;;4.00;3.70;;;20.50;52.50;;;;;;5022204;28;20427;-75
2021/05/31 08:58:29;;;;;;;4.37;3.97;;;20.70;51.80;;;;;;5020669;28;20227;-75
2021/05/31 09:00:55;;;;;;;10.43;4.10;;;20.90;51.90;;;;;;5020656;28;20470;-75
2021/05/31 09:03:20;;;;;;;5.40;5.00;;;20.80;50.70;;;;;;5022268;28;20199;-76
2021/05/31 09:05:47;;;;;;;6.17;3.73;;;20.90;51.10;;;;;;5019490;28;20271;-74
2021/05/31 09:08:20;;;;;;;4.50;4.10;;;21.00;51.30;;;;;;5021541;28;20208;-75
2021/05/31 09:10:51;;;;;;;4.93;4.20;;;21.00;49.90;;;;;;5022117;28;20907;-72
2021/05/31 09:13:29;;;;;;;4.00;3.70;;;20.90;48.90;;;;;;5021052;28;21170;-72
2021/05/31 09:16:05;;;;;;;4.13;3.73;;;21.00;49.20;;;;;;5037031;28;20436;-74
2021/05/31 09:18:31;;;;;;;5.67;4.23;;;21.00;48.40;;;;;;5020840;28;20957;-73
2021/05/31 09:20:57;;;;;;;7.40;4.20;;;21.00;47.90;;;;;;5023383;28;20504;-73
2021/05/31 09:23:23;;;;;;;4.40;4.10;;;21.00;47.90;;;;;;5023815;28;20438;-75
2021/05/31 09:25:49;;;;;;;6.93;4.13;;;21.10;48.20;;;;;;5019706;28;21088;-74
2021/05/31 09:28:14;;;;;;;4.00;3.60;;;21.20;48.40;;;;;;5024675;28;20215;-75
2021/05/31 09:30:44;;;;;;;4.60;4.20;;;21.30;48.10;;;;;;5024727;28;20192;-76
2021/05/31 09:33:12;;;;;;;8.83;4.47;;;21.30;47.80;;;;;;5020069;28;20189;-75
2021/05/31 09:35:43;;;;;;;5.30;4.90;;;21.50;48.20;;;;;;5026082;28;20420;-75
2021/05/31 09:38:09;;;;;;;8.03;6.90;;;21.50;48.20;;;;;;5020392;28;20695;-75
2021/05/31 09:40:35;;;;;;;5.40;4.30;;;21.40;48.00;;;;;;5022515;28;21319;-74
2021/05/31 09:43:03;;;;;;;4.80;4.23;;;21.40;48.50;;;;;;5003879;28;20486;-74
2021/05/31 09:45:30;;;;;;;4.90;4.40;;;21.60;48.60;;;;;;5014727;28;20206;-73
2021/05/31 09:48:03;;;;;;;6.17;5.57;;;21.80;48.50;;;;;;5014555;28;20511;-75
2021/05/31 09:50:31;;;;;;;5.90;4.40;;;21.80;48.00;;;;;;5016752;28;20436;-75
2021/05/31 09:53:07;;;;;;;4.33;4.03;;;21.90;47.80;;;;;;5020367;28;20623;-75
2021/05/31 09:55:52;;;;;;;5.87;5.30;;;21.90;47.70;;;;;;5016897;28;20855;-75
2021/05/31 09:58:18;;;;;;;5.60;5.03;;;21.90;47.60;;;;;;5020713;28;20806;-75
2021/05/31 10:00:58;;;;;;;5.83;5.27;;;21.70;47.60;;;;;;5024044;28;20465;-74
2021/05/31 10:03:49;;;;;;;6.10;5.60;;;22.00;47.90;;;;;;5025711;28;20183;-75
2021/05/31 10:06:21;;;;;;;5.97;5.47;;;22.00;47.40;;;;;;5022703;28;20921;-74
2021/05/31 10:08:47;;;;;;;5.57;5.07;;;22.20;47.60;;;;;;5023090;28;20834;-75
2021/05/31 10:11:14;;;;;;;5.10;4.60;;;22.30;47.80;;;;;;5025234;28;20439;-75
2021/05/31 10:13:41;;;;;;;4.97;4.47;;;22.30;47.80;;;;;;5027254;28;20303;-75
2021/05/31 10:16:09;;;;;;;4.30;3.90;;;22.40;48.00;;;;;;5021633;28;20447;-75
2021/05/31 10:18:40;;;;;;;5.37;4.77;;;22.40;48.60;;;;;;5020206;28;20465;-73
2021/05/31 10:21:07;;;;;;;5.70;5.03;;;22.50;48.20;;;;;;5026207;28;20463;-75
2021/05/31 10:23:33;;;;;;;5.20;4.70;;;22.70;48.00;;;;;;5027703;28;20412;-76
2021/05/31 10:26:01;;;;;;;5.43;5.03;;;22.70;48.50;;;;;;5025159;28;21124;-76
2021/05/31 10:28:36;;;;;;;4.80;4.43;;;22.70;48.50;;;;;;5028967;28;20451;-75
2021/05/31 10:31:04;;;;;;;5.20;4.80;;;22.70;49.50;;;;;;5026522;28;20442;-77
2021/05/31 10:33:33;;;;;;;4.93;4.53;;;22.80;48.90;;;;;;5026819;28;20497;-75
2021/05/31 10:36:18;;;;;;;4.60;4.30;;;22.80;48.60;;;;;;5025835;28;21119;-73
2021/05/31 10:38:47;;;;;;;5.63;4.47;;;22.80;48.20;;;;;;5026472;28;20876;-75
2021/05/31 10:41:16;;;;;;;5.10;4.70;;;22.80;48.00;;;;;;5025414;28;20474;-75
2021/05/31 10:43:50;;;;;;;6.23;4.37;;;22.80;48.00;;;;;;5026280;28;20817;-73
2021/05/31 10:46:21;;;;;;;4.60;4.20;;;22.90;48.40;;;;;;5025100;28;20435;-72
2021/05/31 10:48:52;;;;;;;5.60;5.10;;;23.10;48.30;;;;;;5026950;28;20438;-75
2021/05/31 10:51:26;;;;;;;5.10;4.70;;;22.90;48.20;;;;;;5025170;28;20958;-75
2021/05/31 10:53:53;;;;;;;4.67;4.37;;;23.10;49.50;;;;;;5028323;28;20427;-74
2021/05/31 10:56:24;;;;;;;5.73;5.00;;;23.20;49.20;;;;;;5024844;28;20430;-71
2021/05/31 10:58:52;;;;;;;5.13;4.63;;;23.40;49.10;;;;;;5027004;28;20505;-75
2021/05/31 11:01:25;;;;;;;6.47;4.60;;;23.40;48.50;;;;;;5024628;28;20567;-75
2021/05/31 11:03:52;;;;;;;4.80;4.40;;;23.60;48.30;;;;;;5027653;28;20914;-75
2021/05/31 11:06:23;;;;;;;5.30;4.90;;;23.50;47.60;;;;;;5025876;28;20442;-75
2021/05/31 11:08:55;;;;;;;5.13;4.73;;;23.50;48.20;;;;;;5027016;28;20530;-75
2021/05/31 11:11:35;;;;;;;4.43;4.13;;;23.40;48.50;;;;;;5024665;28;20435;-76
2021/05/31 11:14:02;;;;;;;4.43;4.13;;;23.50;47.50;;;;;;5027665;28;20947;-75
2021/05/31 11:16:28;;;;;;;5.10;4.70;;;23.40;47.10;;;;;;5024433;28;20447;-75
2021/05/31 11:19:01;;;;;;;4.80;4.20;;;23.40;46.80;;;;;;5021177;28;20467;-74
2021/05/31 11:21:29;;;;;;;5.23;4.47;;;23.50;47.70;;;;;;5019090;28;20467;-74
2021/05/31 11:24:04;;;;;;;5.47;4.53;;;23.50;48.10;;;;;;5019765;28;20450;-76
2021/05/31 11:26:32;;;;;;;4.90;4.50;;;23.50;47.60;;;;;;5024407;28;20446;-73
2021/05/31 11:28:58;;;;;;;4.90;4.40;;;23.50;48.40;;;;;;5027050;28;20494;-75
2021/05/31 11:31:25;;;;;;;6.30;5.80;;;23.50;48.10;;;;;;5025377;28;20843;-76
2021/05/31 11:33:54;;;;;;;4.40;4.10;;;23.60;47.90;;;;;;5026323;28;20232;-76
2021/05/31 11:36:33;;;;;;;7.70;4.17;;;23.80;48.30;;;;;;5018768;28;20447;-74
2021/05/31 11:39:00;;;;;;;4.90;4.40;;;23.90;47.90;;;;;;5014473;28;20538;-77
2021/05/31 11:41:55;;;;;;;4.50;4.17;;;24.00;47.40;;;;;;5022684;28;20471;-76
2021/05/31 11:44:20;;;;;;;7.03;4.33;;;24.10;47.60;;;;;;5026499;28;20518;-72
2021/05/31 11:46:57;;;;;;;4.37;4.00;;;24.20;48.10;;;;;;5022415;28;20443;-74
2021/05/31 11:49:24;;;;;;;4.20;3.90;;;24.20;47.80;;;;;;5025852;28;20180;-75
2021/05/31 11:52:01;;;;;;;4.90;4.40;;;24.10;48.00;;;;;;5025355;28;20436;-74
2021/05/31 11:54:30;;;;;;;7.57;4.30;;;24.00;48.10;;;;;;5024199;28;20493;-75
2021/05/31 11:57:05;;;;;;;4.87;4.57;;;23.90;48.70;;;;;;5021354;28;20486;-74
2021/05/31 11:59:42;;;;;;;5.10;4.60;;;23.90;48.20;;;;;;5026072;28;20446;-74
2021/05/31 12:02:10;;;;;;;4.77;4.37;;;23.80;48.10;;;;;;5024330;28;20466;-75
2021/05/31 12:04:37;;;;;;;5.17;4.87;;;23.80;48.60;;;;;;5025238;28;20479;-75
2021/05/31 12:07:07;;;;;;;4.77;4.47;;;23.80;48.30;;;;;;5027029;28;20428;-75
2021/05/31 12:09:37;;;;;;;8.30;5.00;;;23.80;47.80;;;;;;5021762;28;20443;-74
2021/05/31 12:12:03;;;;;;;4.97;4.63;;;23.90;48.30;;;;;;5022455;28;20535;-74
2021/05/31 12:14:29;;;;;;;4.87;4.47;;;23.90;48.40;;;;;;5025037;28;20474;-74
2021/05/31 12:17:00;;;;;;;4.67;4.37;;;23.80;48.50;;;;;;5023393;28;20427;-73
2021/05/31 12:19:27;;;;;;;5.00;3.97;;;23.90;48.10;;;;;;5024389;28;20458;-75
2021/05/31 12:21:57;;;;;;;5.07;4.50;;;23.90;48.60;;;;;;5025185;28;20549;-75
2021/05/31 12:24:29;;;;;;;5.03;4.63;;;23.80;48.50;;;;;;5025182;28;20415;-75
2021/05/31 12:26:58;;;;;;;6.10;4.70;;;23.90;48.30;;;;;;5024958;28;20435;-74
2021/05/31 12:29:34;;;;;;;8.93;4.50;;;23.90;48.30;;;;;;5024792;28;20463;-75
2021/05/31 12:32:03;;;;;;;5.10;4.63;;;23.90;48.00;;;;;;5024009;28;20440;-76
2021/05/31 12:34:29;;;;;;;4.77;4.37;;;23.70;47.70;;;;;;5024428;28;20928;-75
2021/05/31 12:36:55;;;;;;;4.80;4.40;;;23.60;48.50;;;;;;5022542;28;20473;-77
2021/05/31 12:39:22;;;;;;;4.70;4.40;;;23.50;47.70;;;;;;5024613;28;20211;-75
2021/05/31 12:41:48;;;;;;;9.53;4.47;;;23.40;47.50;;;;;;5025014;28;20491;-75
2021/05/31 12:44:14;;;;;;;4.80;4.40;;;23.40;47.40;;;;;;5024237;28;20435;-75
2021/05/31 12:46:42;;;;;;;4.50;4.20;;;23.40;47.30;;;;;;5019123;28;20548;-75
2021/05/31 12:49:08;;;;;;;4.70;4.40;;;23.30;48.10;;;;;;5013595;28;20438;-72
2021/05/31 12:51:35;;;;;;;4.27;3.97;;;23.40;48.20;;;;;;5023506;28;20446;-74
2021/05/31 12:54:04;;;;;;;5.50;5.00;;;23.50;47.50;;;;;;5015362;28;20455;-75
2021/05/31 12:56:36;;;;;;;4.67;4.27;;;23.70;47.40;;;;;;5016331;28;20447;-75
2021/05/31 12:59:06;;;;;;;5.50;4.03;;;23.80;47.70;;;;;;5015999;28;20451;-75
2021/05/31 13:01:32;;;;;;;4.67;4.37;;;23.80;47.10;;;;;;5017932;28;20467;-72
2021/05/31 13:03:58;;;;;;;4.70;4.40;;;23.80;46.70;;;;;;5023534;28;20431;-75
2021/05/31 13:06:50;;;;;;;4.50;4.10;;;23.90;46.70;;;;;;5022256;28;20442;-73